sensor_id;sensor_type;location;lat;lon;timestamp;temperature;humidity
10986;DHT22;5546;48.714;8.738;2023-08-12T00:00:08;22.20;99.50
10986;DHT22;5546;48.714;8.738;2023-08-12T00:02:38;22.00;99.70
10986;DHT22;5546;48.714;8.738;2023-08-12T00:05:05;22.20;99.60
10986;DHT22;5546;48.714;8.738;2023-08-12T00:07:32;22.20;99.70
10986;DHT22;5546;48.714;8.738;2023-08-12T00:09:58;22.30;99.50
10986;DHT22;5546;48.714;8.738;2023-08-12T00:12:24;22.20;99.70
10986;DHT22;5546;48.714;8.738;2023-08-12T00:14:49;22.20;99.60
10986;DHT22;5546;48.714;8.738;2023-08-12T00:17:15;22.00;99.70
10986;DHT22;5546;48.714;8.738;2023-08-12T00:19:40;22.10;99.90
10986;DHT22;5546;48.714;8.738;2023-08-12T00:22:06;22.00;99.90
10986;DHT22;5546;48.714;8.738;2023-08-12T00:24:31;21.90;99.90
10986;DHT22;5546;48.714;8.738;2023-08-12T00:26:57;21.90;99.90
10986;DHT22;5546;48.714;8.738;2023-08-12T00:29:22;22.10;99.70
10986;DHT22;5546;48.714;8.738;2023-08-12T00:31:48;22.20;99.70
10986;DHT22;5546;48.714;8.738;2023-08-12T00:34:13;22.20;99.80
10986;DHT22;5546;48.714;8.738;2023-08-12T00:36:39;21.80;99.90
10986;DHT22;5546;48.714;8.738;2023-08-12T00:39:04;21.80;99.90
10986;DHT22;5546;48.714;8.738;2023-08-12T00:41:30;21.80;99.90
10986;DHT22;5546;48.714;8.738;2023-08-12T00:43:56;21.50;99.90
10986;DHT22;5546;48.714;8.738;2023-08-12T00:46:21;21.80;99.90
10986;DHT22;5546;48.714;8.738;2023-08-12T00:48:48;22.00;99.90
10986;DHT22;5546;48.714;8.738;2023-08-12T00:51:15;21.90;99.90
10986;DHT22;5546;48.714;8.738;2023-08-12T00:53:42;22.00;99.90
10986;DHT22;5546;48.714;8.738;2023-08-12T00:56:08;21.90;99.90
10986;DHT22;5546;48.714;8.738;2023-08-12T00:58:34;21.80;99.90
10986;DHT22;5546;48.714;8.738;2023-08-12T01:00:59;22.00;99.90
10986;DHT22;5546;48.714;8.738;2023-08-12T01:03:25;22.00;99.90
10986;DHT22;5546;48.714;8.738;2023-08-12T01:05:51;22.10;99.80
10986;DHT22;5546;48.714;8.738;2023-08-12T01:08:16;21.90;99.90
10986;DHT22;5546;48.714;8.738;2023-08-12T01:10:52;22.00;99.90
10986;DHT22;5546;48.714;8.738;2023-08-12T01:16:20;22.00;99.90
10986;DHT22;5546;48.714;8.738;2023-08-12T01:18:47;22.10;99.90
10986;DHT22;5546;48.714;8.738;2023-08-12T01:21:16;22.30;99.80
10986;DHT22;5546;48.714;8.738;2023-08-12T01:23:43;22.30;99.60
10986;DHT22;5546;48.714;8.738;2023-08-12T01:26:09;22.50;99.40
10986;DHT22;5546;48.714;8.738;2023-08-12T01:28:34;22.20;99.70
10986;DHT22;5546;48.714;8.738;2023-08-12T01:31:12;22.00;99.90
10986;DHT22;5546;48.714;8.738;2023-08-12T01:33:46;22.00;99.90
10986;DHT22;5546;48.714;8.738;2023-08-12T01:36:19;22.10;99.90
10986;DHT22;5546;48.714;8.738;2023-08-12T01:38:46;22.00;99.90
10986;DHT22;5546;48.714;8.738;2023-08-12T01:41:13;22.30;99.90
10986;DHT22;5546;48.714;8.738;2023-08-12T01:43:41;22.30;99.90
10986;DHT22;5546;48.714;8.738;2023-08-12T01:46:07;22.20;99.90
10986;DHT22;5546;48.714;8.738;2023-08-12T01:48:33;21.90;99.90
10986;DHT22;5546;48.714;8.738;2023-08-12T01:53:24;22.10;99.90
10986;DHT22;5546;48.714;8.738;2023-08-12T01:55:51;22.00;99.90
10986;DHT22;5546;48.714;8.738;2023-08-12T01:58:17;22.00;99.90
10986;DHT22;5546;48.714;8.738;2023-08-12T02:00:43;22.20;99.90
10986;DHT22;5546;48.714;8.738;2023-08-12T02:03:08;22.30;99.70
10986;DHT22;5546;48.714;8.738;2023-08-12T02:05:34;22.40;99.90
10986;DHT22;5546;48.714;8.738;2023-08-12T02:07:59;22.50;99.40
10986;DHT22;5546;48.714;8.738;2023-08-12T02:10:25;22.50;99.60
10986;DHT22;5546;48.714;8.738;2023-08-12T02:12:50;22.40;99.70
10986;DHT22;5546;48.714;8.738;2023-08-12T02:15:16;22.30;99.90
10986;DHT22;5546;48.714;8.738;2023-08-12T02:17:41;22.40;99.80
10986;DHT22;5546;48.714;8.738;2023-08-12T02:20:07;22.50;99.70
10986;DHT22;5546;48.714;8.738;2023-08-12T02:22:33;22.50;99.90
10986;DHT22;5546;48.714;8.738;2023-08-12T02:24:58;22.40;99.90
10986;DHT22;5546;48.714;8.738;2023-08-12T02:27:24;22.20;99.90
10986;DHT22;5546;48.714;8.738;2023-08-12T02:29:49;22.30;99.90
10986;DHT22;5546;48.714;8.738;2023-08-12T02:32:15;22.40;99.90
10986;DHT22;5546;48.714;8.738;2023-08-12T02:34:40;22.30;99.90
10986;DHT22;5546;48.714;8.738;2023-08-12T02:37:06;22.10;99.90
10986;DHT22;5546;48.714;8.738;2023-08-12T02:39:31;22.10;99.90
10986;DHT22;5546;48.714;8.738;2023-08-12T02:41:57;22.20;99.90
10986;DHT22;5546;48.714;8.738;2023-08-12T02:44:22;22.20;99.90
10986;DHT22;5546;48.714;8.738;2023-08-12T02:46:48;22.10;99.90
10986;DHT22;5546;48.714;8.738;2023-08-12T02:49:13;22.20;99.90
10986;DHT22;5546;48.714;8.738;2023-08-12T02:51:39;22.30;99.90
10986;DHT22;5546;48.714;8.738;2023-08-12T02:54:04;22.30;99.90
10986;DHT22;5546;48.714;8.738;2023-08-12T02:56:30;22.20;99.90
10986;DHT22;5546;48.714;8.738;2023-08-12T02:58:56;22.10;99.90
10986;DHT22;5546;48.714;8.738;2023-08-12T03:01:22;21.90;99.90
10986;DHT22;5546;48.714;8.738;2023-08-12T03:03:47;21.50;99.90
10986;DHT22;5546;48.714;8.738;2023-08-12T03:06:13;21.30;99.90
10986;DHT22;5546;48.714;8.738;2023-08-12T03:08:38;21.30;99.90
10986;DHT22;5546;48.714;8.738;2023-08-12T03:11:04;21.70;99.90
10986;DHT22;5546;48.714;8.738;2023-08-12T03:13:30;21.70;99.90
10986;DHT22;5546;48.714;8.738;2023-08-12T03:15:56;21.90;99.90
10986;DHT22;5546;48.714;8.738;2023-08-12T03:18:21;22.00;99.90
10986;DHT22;5546;48.714;8.738;2023-08-12T03:20:47;22.10;99.90
10986;DHT22;5546;48.714;8.738;2023-08-12T03:23:13;22.20;99.90
10986;DHT22;5546;48.714;8.738;2023-08-12T03:25:38;22.20;99.90
10986;DHT22;5546;48.714;8.738;2023-08-12T03:28:04;22.00;99.90
10986;DHT22;5546;48.714;8.738;2023-08-12T03:30:29;22.20;99.90
10986;DHT22;5546;48.714;8.738;2023-08-12T03:32:56;22.20;99.90
10986;DHT22;5546;48.714;8.738;2023-08-12T03:35:21;22.30;99.90
10986;DHT22;5546;48.714;8.738;2023-08-12T03:37:47;22.40;99.90
10986;DHT22;5546;48.714;8.738;2023-08-12T03:42:38;22.30;99.90
10986;DHT22;5546;48.714;8.738;2023-08-12T03:45:04;22.40;99.90
10986;DHT22;5546;48.714;8.738;2023-08-12T03:47:30;22.40;99.90
10986;DHT22;5546;48.714;8.738;2023-08-12T03:49:55;22.30;99.90
10986;DHT22;5546;48.714;8.738;2023-08-12T03:52:21;22.20;99.90
10986;DHT22;5546;48.714;8.738;2023-08-12T03:54:47;22.50;99.90
10986;DHT22;5546;48.714;8.738;2023-08-12T03:57:12;22.60;99.70
10986;DHT22;5546;48.714;8.738;2023-08-12T03:59:38;22.30;99.90
10986;DHT22;5546;48.714;8.738;2023-08-12T04:02:03;22.40;99.90
10986;DHT22;5546;48.714;8.738;2023-08-12T04:04:32;22.40;99.90
10986;DHT22;5546;48.714;8.738;2023-08-12T04:06:57;22.40;99.90
10986;DHT22;5546;48.714;8.738;2023-08-12T04:09:23;22.40;99.90
10986;DHT22;5546;48.714;8.738;2023-08-12T04:11:49;22.40;99.90
10986;DHT22;5546;48.714;8.738;2023-08-12T04:14:14;22.60;99.90
10986;DHT22;5546;48.714;8.738;2023-08-12T04:16:40;22.40;99.90
10986;DHT22;5546;48.714;8.738;2023-08-12T04:19:05;22.40;99.90
10986;DHT22;5546;48.714;8.738;2023-08-12T04:21:31;22.30;99.90
10986;DHT22;5546;48.714;8.738;2023-08-12T04:23:56;22.40;99.90
10986;DHT22;5546;48.714;8.738;2023-08-12T04:26:22;22.50;99.90
10986;DHT22;5546;48.714;8.738;2023-08-12T04:28:47;22.50;99.90
10986;DHT22;5546;48.714;8.738;2023-08-12T04:31:13;22.50;99.90
10986;DHT22;5546;48.714;8.738;2023-08-12T04:33:38;22.50;99.90
10986;DHT22;5546;48.714;8.738;2023-08-12T04:36:04;22.40;99.90
10986;DHT22;5546;48.714;8.738;2023-08-12T04:38:30;22.40;99.90
10986;DHT22;5546;48.714;8.738;2023-08-12T04:40:56;22.30;99.90
10986;DHT22;5546;48.714;8.738;2023-08-12T04:43:22;22.60;99.90
10986;DHT22;5546;48.714;8.738;2023-08-12T04:45:48;22.60;99.90
10986;DHT22;5546;48.714;8.738;2023-08-12T04:48:14;22.70;99.60
10986;DHT22;5546;48.714;8.738;2023-08-12T04:50:42;22.60;99.90
10986;DHT22;5546;48.714;8.738;2023-08-12T04:53:08;22.50;99.90
10986;DHT22;5546;48.714;8.738;2023-08-12T04:55:35;22.50;99.90
10986;DHT22;5546;48.714;8.738;2023-08-12T04:58:01;22.50;99.90
10986;DHT22;5546;48.714;8.738;2023-08-12T05:00:27;22.60;99.90
10986;DHT22;5546;48.714;8.738;2023-08-12T05:02:53;22.40;99.90
10986;DHT22;5546;48.714;8.738;2023-08-12T05:05:19;22.30;99.90
10986;DHT22;5546;48.714;8.738;2023-08-12T05:07:45;22.40;99.90
10986;DHT22;5546;48.714;8.738;2023-08-12T05:10:15;22.30;99.90
10986;DHT22;5546;48.714;8.738;2023-08-12T05:12:41;22.40;99.90
10986;DHT22;5546;48.714;8.738;2023-08-12T05:15:07;22.10;99.90
10986;DHT22;5546;48.714;8.738;2023-08-12T05:17:33;22.30;99.90
10986;DHT22;5546;48.714;8.738;2023-08-12T05:19:59;22.30;99.90
10986;DHT22;5546;48.714;8.738;2023-08-12T05:22:24;22.30;99.90
10986;DHT22;5546;48.714;8.738;2023-08-12T05:24:50;22.40;99.90
10986;DHT22;5546;48.714;8.738;2023-08-12T05:27:15;22.50;99.90
10986;DHT22;5546;48.714;8.738;2023-08-12T05:29:41;22.30;99.90
10986;DHT22;5546;48.714;8.738;2023-08-12T05:32:06;22.50;99.90
10986;DHT22;5546;48.714;8.738;2023-08-12T05:34:32;22.60;99.90
10986;DHT22;5546;48.714;8.738;2023-08-12T05:36:57;22.60;99.90
10986;DHT22;5546;48.714;8.738;2023-08-12T05:39:23;22.70;99.90
10986;DHT22;5546;48.714;8.738;2023-08-12T05:41:48;23.10;99.90
10986;DHT22;5546;48.714;8.738;2023-08-12T05:44:14;23.20;99.90
10986;DHT22;5546;48.714;8.738;2023-08-12T05:46:40;22.90;99.90
10986;DHT22;5546;48.714;8.738;2023-08-12T05:49:06;23.10;99.90
10986;DHT22;5546;48.714;8.738;2023-08-12T05:51:31;23.20;99.90
10986;DHT22;5546;48.714;8.738;2023-08-12T05:53:57;23.20;99.90
10986;DHT22;5546;48.714;8.738;2023-08-12T05:56:22;23.10;99.90
10986;DHT22;5546;48.714;8.738;2023-08-12T05:58:48;23.50;99.30
10986;DHT22;5546;48.714;8.738;2023-08-12T06:01:15;23.80;99.00
10986;DHT22;5546;48.714;8.738;2023-08-12T06:03:40;24.10;98.50
10986;DHT22;5546;48.714;8.738;2023-08-12T06:06:06;24.50;98.20
10986;DHT22;5546;48.714;8.738;2023-08-12T06:08:31;24.60;98.40
10986;DHT22;5546;48.714;8.738;2023-08-12T06:10:57;25.20;97.20
10986;DHT22;5546;48.714;8.738;2023-08-12T06:13:22;26.00;96.10
10986;DHT22;5546;48.714;8.738;2023-08-12T06:15:48;27.00;94.50
10986;DHT22;5546;48.714;8.738;2023-08-12T06:18:13;27.60;92.40
10986;DHT22;5546;48.714;8.738;2023-08-12T06:20:39;27.80;92.00
10986;DHT22;5546;48.714;8.738;2023-08-12T06:23:04;27.80;92.30
10986;DHT22;5546;48.714;8.738;2023-08-12T06:25:30;27.00;93.10
10986;DHT22;5546;48.714;8.738;2023-08-12T06:27:55;27.10;92.90
10986;DHT22;5546;48.714;8.738;2023-08-12T06:30:23;26.80;93.20
10986;DHT22;5546;48.714;8.738;2023-08-12T06:37:40;26.20;93.80
10986;DHT22;5546;48.714;8.738;2023-08-12T06:40:07;26.10;94.00
10986;DHT22;5546;48.714;8.738;2023-08-12T06:42:33;26.30;94.60
10986;DHT22;5546;48.714;8.738;2023-08-12T06:44:59;26.80;93.50
10986;DHT22;5546;48.714;8.738;2023-08-12T06:47:25;26.90;93.70
10986;DHT22;5546;48.714;8.738;2023-08-12T06:49:52;28.90;91.00
10986;DHT22;5546;48.714;8.738;2023-08-12T06:52:18;28.90;90.80
10986;DHT22;5546;48.714;8.738;2023-08-12T06:54:44;30.00;88.80
10986;DHT22;5546;48.714;8.738;2023-08-12T06:57:09;31.30;85.90
10986;DHT22;5546;48.714;8.738;2023-08-12T06:59:37;32.10;81.90
10986;DHT22;5546;48.714;8.738;2023-08-12T07:02:03;32.20;81.40
10986;DHT22;5546;48.714;8.738;2023-08-12T07:04:28;32.90;79.40
10986;DHT22;5546;48.714;8.738;2023-08-12T07:06:54;32.80;79.90
10986;DHT22;5546;48.714;8.738;2023-08-12T07:09:19;32.30;80.50
10986;DHT22;5546;48.714;8.738;2023-08-12T07:14:11;33.60;77.20
10986;DHT22;5546;48.714;8.738;2023-08-12T07:16:36;34.40;75.50
10986;DHT22;5546;48.714;8.738;2023-08-12T07:19:02;35.50;70.70
10986;DHT22;5546;48.714;8.738;2023-08-12T07:21:27;35.40;71.20
10986;DHT22;5546;48.714;8.738;2023-08-12T07:23:53;35.80;69.80
10986;DHT22;5546;48.714;8.738;2023-08-12T07:26:18;36.20;68.90
10986;DHT22;5546;48.714;8.738;2023-08-12T07:28:44;35.90;67.90
10986;DHT22;5546;48.714;8.738;2023-08-12T07:31:09;36.30;69.10
10986;DHT22;5546;48.714;8.738;2023-08-12T07:33:35;37.00;66.70
10986;DHT22;5546;48.714;8.738;2023-08-12T07:36:01;36.50;67.80
10986;DHT22;5546;48.714;8.738;2023-08-12T07:38:27;37.00;66.90
10986;DHT22;5546;48.714;8.738;2023-08-12T07:40:52;36.70;66.90
10986;DHT22;5546;48.714;8.738;2023-08-12T07:43:18;37.00;65.30
10986;DHT22;5546;48.714;8.738;2023-08-12T07:45:43;36.80;65.50
10986;DHT22;5546;48.714;8.738;2023-08-12T07:48:09;35.10;69.40
10986;DHT22;5546;48.714;8.738;2023-08-12T07:50:34;33.80;73.70
10986;DHT22;5546;48.714;8.738;2023-08-12T07:53:00;32.90;75.80
10986;DHT22;5546;48.714;8.738;2023-08-12T07:55:26;33.00;75.40
10986;DHT22;5546;48.714;8.738;2023-08-12T07:57:52;33.00;75.80
10986;DHT22;5546;48.714;8.738;2023-08-12T08:00:17;33.40;77.00
10986;DHT22;5546;48.714;8.738;2023-08-12T08:02:43;33.50;73.30
10986;DHT22;5546;48.714;8.738;2023-08-12T08:05:09;33.60;74.10
10986;DHT22;5546;48.714;8.738;2023-08-12T08:07:34;34.30;73.10
10986;DHT22;5546;48.714;8.738;2023-08-12T08:10:00;36.10;68.10
10986;DHT22;5546;48.714;8.738;2023-08-12T08:12:25;36.60;67.20
10986;DHT22;5546;48.714;8.738;2023-08-12T08:14:51;36.50;68.00
10986;DHT22;5546;48.714;8.738;2023-08-12T08:17:16;36.90;68.90
10986;DHT22;5546;48.714;8.738;2023-08-12T08:19:42;37.90;66.60
10986;DHT22;5546;48.714;8.738;2023-08-12T08:22:07;38.70;62.10
10986;DHT22;5546;48.714;8.738;2023-08-12T08:24:33;39.40;59.20
10986;DHT22;5546;48.714;8.738;2023-08-12T08:26:58;38.40;60.00
10986;DHT22;5546;48.714;8.738;2023-08-12T08:29:24;37.20;62.80
10986;DHT22;5546;48.714;8.738;2023-08-12T08:31:50;36.80;62.70
10986;DHT22;5546;48.714;8.738;2023-08-12T08:34:16;36.80;64.20
10986;DHT22;5546;48.714;8.738;2023-08-12T08:36:42;36.00;64.10
10986;DHT22;5546;48.714;8.738;2023-08-12T08:41:38;36.70;63.10
10986;DHT22;5546;48.714;8.738;2023-08-12T08:44:07;36.80;63.60
10986;DHT22;5546;48.714;8.738;2023-08-12T08:46:33;38.40;59.90
10986;DHT22;5546;48.714;8.738;2023-08-12T08:48:59;38.80;58.40
10986;DHT22;5546;48.714;8.738;2023-08-12T08:51:30;38.70;59.00
10986;DHT22;5546;48.714;8.738;2023-08-12T08:53:56;37.00;60.40
10986;DHT22;5546;48.714;8.738;2023-08-12T08:58:48;36.00;62.90
10986;DHT22;5546;48.714;8.738;2023-08-12T09:01:15;35.40;64.10
10986;DHT22;5546;48.714;8.738;2023-08-12T09:03:43;35.40;68.90
10986;DHT22;5546;48.714;8.738;2023-08-12T09:06:09;35.20;64.80
10986;DHT22;5546;48.714;8.738;2023-08-12T09:08:36;35.10;65.40
10986;DHT22;5546;48.714;8.738;2023-08-12T09:11:03;34.60;67.00
10986;DHT22;5546;48.714;8.738;2023-08-12T09:13:29;35.00;63.70
10986;DHT22;5546;48.714;8.738;2023-08-12T09:15:55;35.20;64.70
10986;DHT22;5546;48.714;8.738;2023-08-12T09:18:21;35.10;62.80
10986;DHT22;5546;48.714;8.738;2023-08-12T09:20:53;33.50;65.80
10986;DHT22;5546;48.714;8.738;2023-08-12T09:23:19;33.00;68.00
10986;DHT22;5546;48.714;8.738;2023-08-12T09:25:45;33.00;67.60
10986;DHT22;5546;48.714;8.738;2023-08-12T09:28:11;32.50;69.50
10986;DHT22;5546;48.714;8.738;2023-08-12T09:30:38;32.40;73.30
10986;DHT22;5546;48.714;8.738;2023-08-12T09:33:05;32.60;70.80
10986;DHT22;5546;48.714;8.738;2023-08-12T09:35:40;32.40;79.90
10986;DHT22;5546;48.714;8.738;2023-08-12T09:38:07;32.50;73.00
10986;DHT22;5546;48.714;8.738;2023-08-12T09:40:34;32.40;78.90
10986;DHT22;5546;48.714;8.738;2023-08-12T09:43:01;32.80;81.50
10986;DHT22;5546;48.714;8.738;2023-08-12T09:45:26;32.70;72.20
10986;DHT22;5546;48.714;8.738;2023-08-12T09:47:53;32.90;82.30
10986;DHT22;5546;48.714;8.738;2023-08-12T09:50:22;33.10;81.90
10986;DHT22;5546;48.714;8.738;2023-08-12T09:52:48;33.60;72.30
10986;DHT22;5546;48.714;8.738;2023-08-12T09:55:16;34.20;74.20
10986;DHT22;5546;48.714;8.738;2023-08-12T09:57:43;34.30;67.60
10986;DHT22;5546;48.714;8.738;2023-08-12T10:00:10;34.20;70.60
10986;DHT22;5546;48.714;8.738;2023-08-12T10:02:43;34.20;78.40
10986;DHT22;5546;48.714;8.738;2023-08-12T10:05:11;36.00;69.20
10986;DHT22;5546;48.714;8.738;2023-08-12T10:07:36;36.10;66.80
10986;DHT22;5546;48.714;8.738;2023-08-12T10:10:03;37.40;60.00
10986;DHT22;5546;48.714;8.738;2023-08-12T10:12:31;37.90;65.30
10986;DHT22;5546;48.714;8.738;2023-08-12T10:14:57;37.90;65.90
10986;DHT22;5546;48.714;8.738;2023-08-12T10:17:24;38.90;59.30
10986;DHT22;5546;48.714;8.738;2023-08-12T10:19:55;41.10;57.60
10986;DHT22;5546;48.714;8.738;2023-08-12T10:22:21;43.30;52.40
10986;DHT22;5546;48.714;8.738;2023-08-12T10:24:47;44.70;50.30
10986;DHT22;5546;48.714;8.738;2023-08-12T10:27:15;44.70;47.30
10986;DHT22;5546;48.714;8.738;2023-08-12T10:29:46;44.50;46.10
10986;DHT22;5546;48.714;8.738;2023-08-12T10:32:13;43.70;47.40
10986;DHT22;5546;48.714;8.738;2023-08-12T10:34:38;42.20;48.50
10986;DHT22;5546;48.714;8.738;2023-08-12T10:37:04;41.80;47.30
10986;DHT22;5546;48.714;8.738;2023-08-12T10:39:33;39.30;50.10
10986;DHT22;5546;48.714;8.738;2023-08-12T10:41:59;39.30;50.50
10986;DHT22;5546;48.714;8.738;2023-08-12T10:44:52;38.60;51.60
10986;DHT22;5546;48.714;8.738;2023-08-12T10:47:17;36.20;54.70
10986;DHT22;5546;48.714;8.738;2023-08-12T10:49:47;35.90;56.10
10986;DHT22;5546;48.714;8.738;2023-08-12T10:52:29;36.40;56.00
10986;DHT22;5546;48.714;8.738;2023-08-12T10:57:41;34.90;57.60
10986;DHT22;5546;48.714;8.738;2023-08-12T11:00:11;34.20;59.20
10986;DHT22;5546;48.714;8.738;2023-08-12T11:02:38;34.10;59.40
10986;DHT22;5546;48.714;8.738;2023-08-12T11:05:10;34.00;59.10
10986;DHT22;5546;48.714;8.738;2023-08-12T11:07:42;33.90;59.50
10986;DHT22;5546;48.714;8.738;2023-08-12T11:10:17;33.80;59.60
10986;DHT22;5546;48.714;8.738;2023-08-12T11:15:20;33.30;60.10
10986;DHT22;5546;48.714;8.738;2023-08-12T11:17:54;32.80;61.60
10986;DHT22;5546;48.714;8.738;2023-08-12T11:20:20;34.30;59.80
10986;DHT22;5546;48.714;8.738;2023-08-12T11:22:46;35.50;57.40
10986;DHT22;5546;48.714;8.738;2023-08-12T11:25:13;35.80;56.70
10986;DHT22;5546;48.714;8.738;2023-08-12T11:27:43;35.60;57.10
10986;DHT22;5546;48.714;8.738;2023-08-12T11:30:13;36.30;56.20
10986;DHT22;5546;48.714;8.738;2023-08-12T11:32:44;36.50;55.90
10986;DHT22;5546;48.714;8.738;2023-08-12T11:35:11;37.60;54.20
10986;DHT22;5546;48.714;8.738;2023-08-12T11:37:38;37.60;54.60
10986;DHT22;5546;48.714;8.738;2023-08-12T11:40:06;35.40;57.40
10986;DHT22;5546;48.714;8.738;2023-08-12T11:42:38;35.10;58.50
10986;DHT22;5546;48.714;8.738;2023-08-12T11:45:04;34.40;65.50
10986;DHT22;5546;48.714;8.738;2023-08-12T11:47:30;34.00;67.80
10986;DHT22;5546;48.714;8.738;2023-08-12T11:49:56;33.60;68.70
10986;DHT22;5546;48.714;8.738;2023-08-12T11:52:21;33.20;71.70
10986;DHT22;5546;48.714;8.738;2023-08-12T11:54:49;33.10;75.70
10986;DHT22;5546;48.714;8.738;2023-08-12T11:57:15;31.80;77.10
10986;DHT22;5546;48.714;8.738;2023-08-12T11:59:41;30.20;84.60
10986;DHT22;5546;48.714;8.738;2023-08-12T12:02:07;28.50;86.90
10986;DHT22;5546;48.714;8.738;2023-08-12T12:04:32;26.50;92.60
10986;DHT22;5546;48.714;8.738;2023-08-12T12:06:58;26.00;95.20
10986;DHT22;5546;48.714;8.738;2023-08-12T12:09:25;25.90;97.00
10986;DHT22;5546;48.714;8.738;2023-08-12T12:11:52;26.20;97.40
10986;DHT22;5546;48.714;8.738;2023-08-12T12:14:18;26.20;98.90
10986;DHT22;5546;48.714;8.738;2023-08-12T12:16:48;25.90;98.40
10986;DHT22;5546;48.714;8.738;2023-08-12T12:19:22;25.50;99.90
10986;DHT22;5546;48.714;8.738;2023-08-12T12:21:52;25.30;99.90
10986;DHT22;5546;48.714;8.738;2023-08-12T12:24:19;25.00;99.90
10986;DHT22;5546;48.714;8.738;2023-08-12T12:26:45;24.90;99.90
10986;DHT22;5546;48.714;8.738;2023-08-12T12:29:12;25.30;99.90
10986;DHT22;5546;48.714;8.738;2023-08-12T12:31:40;25.70;99.90
10986;DHT22;5546;48.714;8.738;2023-08-12T12:34:07;26.30;99.90
10986;DHT22;5546;48.714;8.738;2023-08-12T12:36:36;26.80;99.90
10986;DHT22;5546;48.714;8.738;2023-08-12T12:39:02;27.00;99.90
10986;DHT22;5546;48.714;8.738;2023-08-12T12:41:28;26.60;99.90
10986;DHT22;5546;48.714;8.738;2023-08-12T12:43:54;26.40;99.90
10986;DHT22;5546;48.714;8.738;2023-08-12T12:51:12;27.10;99.90
10986;DHT22;5546;48.714;8.738;2023-08-12T12:53:38;27.00;99.90
10986;DHT22;5546;48.714;8.738;2023-08-12T12:56:04;27.50;99.90
10986;DHT22;5546;48.714;8.738;2023-08-12T12:58:33;27.90;98.70
10986;DHT22;5546;48.714;8.738;2023-08-12T13:01:03;28.40;98.30
10986;DHT22;5546;48.714;8.738;2023-08-12T13:03:30;29.50;97.20
10986;DHT22;5546;48.714;8.738;2023-08-12T13:05:56;30.70;95.50
10986;DHT22;5546;48.714;8.738;2023-08-12T13:08:21;32.10;92.70
10986;DHT22;5546;48.714;8.738;2023-08-12T13:10:47;33.50;90.70
10986;DHT22;5546;48.714;8.738;2023-08-12T13:13:14;33.80;87.90
10986;DHT22;5546;48.714;8.738;2023-08-12T13:15:44;33.70;89.60
10986;DHT22;5546;48.714;8.738;2023-08-12T13:18:10;34.90;87.30
10986;DHT22;5546;48.714;8.738;2023-08-12T13:20:36;34.40;87.00
10986;DHT22;5546;48.714;8.738;2023-08-12T13:23:02;34.30;87.80
10986;DHT22;5546;48.714;8.738;2023-08-12T13:25:31;34.50;86.10
10986;DHT22;5546;48.714;8.738;2023-08-12T13:27:58;35.10;81.10
10986;DHT22;5546;48.714;8.738;2023-08-12T13:30:24;34.00;84.60
10986;DHT22;5546;48.714;8.738;2023-08-12T13:32:49;33.90;85.40
10986;DHT22;5546;48.714;8.738;2023-08-12T13:35:16;32.70;84.70
10986;DHT22;5546;48.714;8.738;2023-08-12T13:37:42;32.30;87.80
10986;DHT22;5546;48.714;8.738;2023-08-12T13:40:07;31.70;88.40
10986;DHT22;5546;48.714;8.738;2023-08-12T13:42:34;31.10;90.60
10986;DHT22;5546;48.714;8.738;2023-08-12T13:47:25;30.00;91.60
10986;DHT22;5546;48.714;8.738;2023-08-12T13:49:51;29.80;91.90
10986;DHT22;5546;48.714;8.738;2023-08-12T13:52:16;30.00;92.00
10986;DHT22;5546;48.714;8.738;2023-08-12T13:54:42;30.20;91.60
10986;DHT22;5546;48.714;8.738;2023-08-12T13:57:07;30.20;91.90
10986;DHT22;5546;48.714;8.738;2023-08-12T13:59:33;31.00;91.80
10986;DHT22;5546;48.714;8.738;2023-08-12T14:01:58;31.70;90.30
10986;DHT22;5546;48.714;8.738;2023-08-12T14:04:24;33.40;85.30
10986;DHT22;5546;48.714;8.738;2023-08-12T14:06:49;33.90;84.10
10986;DHT22;5546;48.714;8.738;2023-08-12T14:09:15;34.10;83.00
10986;DHT22;5546;48.714;8.738;2023-08-12T14:11:42;34.20;83.90
10986;DHT22;5546;48.714;8.738;2023-08-12T14:14:08;34.90;81.70
10986;DHT22;5546;48.714;8.738;2023-08-12T14:16:34;36.60;75.30
10986;DHT22;5546;48.714;8.738;2023-08-12T14:19:00;36.50;75.80
10986;DHT22;5546;48.714;8.738;2023-08-12T14:21:25;37.00;75.20
10986;DHT22;5546;48.714;8.738;2023-08-12T14:23:51;36.80;74.50
10986;DHT22;5546;48.714;8.738;2023-08-12T14:26:16;36.30;76.70
10986;DHT22;5546;48.714;8.738;2023-08-12T14:28:42;36.20;75.10
10986;DHT22;5546;48.714;8.738;2023-08-12T14:31:07;36.80;74.70
10986;DHT22;5546;48.714;8.738;2023-08-12T14:33:33;37.40;72.80
10986;DHT22;5546;48.714;8.738;2023-08-12T14:35:58;37.20;72.70
10986;DHT22;5546;48.714;8.738;2023-08-12T14:38:24;36.40;73.70
10986;DHT22;5546;48.714;8.738;2023-08-12T14:40:50;36.30;74.30
10986;DHT22;5546;48.714;8.738;2023-08-12T14:43:15;36.10;74.90
10986;DHT22;5546;48.714;8.738;2023-08-12T14:45:41;35.80;76.10
10986;DHT22;5546;48.714;8.738;2023-08-12T14:48:07;33.80;79.60
10986;DHT22;5546;48.714;8.738;2023-08-12T14:50:32;33.80;80.60
10986;DHT22;5546;48.714;8.738;2023-08-12T14:52:58;33.50;81.90
10986;DHT22;5546;48.714;8.738;2023-08-12T14:55:23;33.30;86.80
10986;DHT22;5546;48.714;8.738;2023-08-12T14:57:49;33.20;87.40
10986;DHT22;5546;48.714;8.738;2023-08-12T15:00:14;32.60;89.70
10986;DHT22;5546;48.714;8.738;2023-08-12T15:02:40;32.60;90.10
10986;DHT22;5546;48.714;8.738;2023-08-12T15:05:06;31.60;91.60
10986;DHT22;5546;48.714;8.738;2023-08-12T15:07:32;31.10;91.90
10986;DHT22;5546;48.714;8.738;2023-08-12T15:09:57;31.00;92.30
10986;DHT22;5546;48.714;8.738;2023-08-12T15:12:24;30.50;93.20
10986;DHT22;5546;48.714;8.738;2023-08-12T15:17:16;29.80;94.20
10986;DHT22;5546;48.714;8.738;2023-08-12T15:19:42;29.60;94.50
10986;DHT22;5546;48.714;8.738;2023-08-12T15:22:07;29.50;94.40
10986;DHT22;5546;48.714;8.738;2023-08-12T15:24:33;29.20;95.00
10986;DHT22;5546;48.714;8.738;2023-08-12T15:26:58;29.20;95.10
10986;DHT22;5546;48.714;8.738;2023-08-12T15:29:24;28.80;94.10
10986;DHT22;5546;48.714;8.738;2023-08-12T15:31:50;28.50;94.40
10986;DHT22;5546;48.714;8.738;2023-08-12T15:34:15;28.40;94.70
10986;DHT22;5546;48.714;8.738;2023-08-12T15:36:41;28.00;97.30
10986;DHT22;5546;48.714;8.738;2023-08-12T15:39:07;27.70;99.20
10986;DHT22;5546;48.714;8.738;2023-08-12T15:44:00;27.20;99.90
10986;DHT22;5546;48.714;8.738;2023-08-12T15:46:25;26.50;99.90
10986;DHT22;5546;48.714;8.738;2023-08-12T15:48:51;26.20;99.90
10986;DHT22;5546;48.714;8.738;2023-08-12T15:51:16;26.00;99.90
10986;DHT22;5546;48.714;8.738;2023-08-12T15:53:42;26.00;99.90
10986;DHT22;5546;48.714;8.738;2023-08-12T15:56:07;26.10;99.90
10986;DHT22;5546;48.714;8.738;2023-08-12T15:58:33;25.90;99.90
10986;DHT22;5546;48.714;8.738;2023-08-12T16:00:58;25.90;99.90
10986;DHT22;5546;48.714;8.738;2023-08-12T16:03:25;25.50;99.90
10986;DHT22;5546;48.714;8.738;2023-08-12T16:05:50;25.30;99.90
10986;DHT22;5546;48.714;8.738;2023-08-12T16:08:16;25.50;99.90
10986;DHT22;5546;48.714;8.738;2023-08-12T16:10:42;25.50;99.90
10986;DHT22;5546;48.714;8.738;2023-08-12T16:13:07;25.30;99.90
10986;DHT22;5546;48.714;8.738;2023-08-12T16:15:33;25.20;99.90